WetterOnline ( https://www.wetteronline.de )

Wetter aktuell Schönhausen (Elbe)

Aktuelles Wetter: Genthin (39m)

6-stündlich | Neueste Meldungen
Ortszeit Temperatur Wetter
Mo, 15.07. 20:00 27.2° C wolkig
Mo, 15.07. 14:00 26.7° C wolkenlos
Mo, 15.07. 8:00 19.4° C wolkenlos
Mo, 15.07. 2:00 15.3° C bedeckt
So, 14.07. 20:00 24.2° C wolkig
So, 14.07. 14:00 22.5° C leichter Regen
So, 14.07. 8:00 15.7° C leicht bewölkt
So, 14.07. 2:00 10.0° C fast wolkenlos
Ortszeit Temperatur Wetter
Di, 16.07. 1:10 18.5° C bedeckt
Di, 16.07. 1:00 18.3° C wolkig
Di, 16.07. 0:50 18.3° C wolkig
Di, 16.07. 0:40 18.2° C bedeckt
Di, 16.07. 0:30 18.9° C wolkig
Di, 16.07. 0:20 18.9° C wolkig
Di, 16.07. 0:00 19.4° C wolkig
Mo, 15.07. 23:30 19.7° C wolkig
Mo, 15.07. 23:00 19.8° C wolkig
Mo, 15.07. 22:30 19.8° C fast wolkenlos
Ortszeit Relative Feuchte Sichtweite
Mo, 15.07. 20:00 33% >70 km
Mo, 15.07. 14:00 35% 60 km
Mo, 15.07. 8:00 66% 65 km
Mo, 15.07. 2:00 86% 55 km
So, 14.07. 20:00 41% 60 km
So, 14.07. 14:00 43% >70 km
So, 14.07. 8:00 79% 40 km
So, 14.07. 2:00 94% 26 km
Ortszeit Relative Feuchte Sichtweite
Di, 16.07. 1:10 67% -
Di, 16.07. 1:00 67% 50 km
Di, 16.07. 0:50 67% -
Di, 16.07. 0:40 68% -
Di, 16.07. 0:30 66% 50 km
Di, 16.07. 0:20 66% -
Di, 16.07. 0:00 64% 45 km
Mo, 15.07. 23:30 62% 55 km
Mo, 15.07. 23:00 62% 50 km
Mo, 15.07. 22:30 63% 55 km
Ortszeit Niederschlagsmenge Niederschlagsart
Mo, 15.07. 20:00 0.0 l/m2 in 12 Std. -
Mo, 15.07. 14:00 0.0 l/m2 in 6 Std. -
Mo, 15.07. 8:00 0.0 l/m2 in 12 Std. -
Mo, 15.07. 2:00 0.0 l/m2 in 6 Std. -
So, 14.07. 20:00 0.5 l/m2 in 12 Std. Regen
So, 14.07. 14:00 0.1 l/m2 in 6 Std. Regen
So, 14.07. 8:00 0.0 l/m2 in 12 Std. -
So, 14.07. 2:00 0.0 l/m2 in 6 Std. -
Ortszeit Niederschlagsmenge Niederschlagsart
Di, 16.07. 1:10 keine Meldung -
Di, 16.07. 1:00 0.0 l/m2 in 1 Std. -
Di, 16.07. 0:50 keine Meldung -
Di, 16.07. 0:40 keine Meldung -
Di, 16.07. 0:30 0.0 l/m2 in 30 Min -
Di, 16.07. 0:20 keine Meldung -
Di, 16.07. 0:00 0.0 l/m2 in 1 Std. -
Mo, 15.07. 23:30 0.0 l/m2 in 30 Min -
Mo, 15.07. 23:00 0.0 l/m2 in 1 Std. -
Mo, 15.07. 22:30 0.0 l/m2 in 30 Min -
Ortszeit Stärke Spitze Richtung
km/h Bft. km/h Grad Sektor
Mo, 15.07. 20:00 6 1 24 100° O
Mo, 15.07. 14:00 14 3 25 290° W
Mo, 15.07. 8:00 4 1 7 230° SW
Mo, 15.07. 2:00 0 0 11 - -
So, 14.07. 20:00 6 1 28 270° W
So, 14.07. 14:00 9 2 28 250° W
So, 14.07. 8:00 2 1 7 80° O
So, 14.07. 2:00 0 0 18 - -
Ortszeit Stärke Spitze Richtung
km/h Bft. km/h Grad Sektor
Di, 16.07. 1:10 4 1 - 70° O
Di, 16.07. 1:00 6 1 7 80° O
Di, 16.07. 0:50 6 1 - 80° O
Di, 16.07. 0:40 7 2 - 90° O
Di, 16.07. 0:30 7 2 7 60° NO
Di, 16.07. 0:20 7 2 - 60° NO
Di, 16.07. 0:00 4 1 11 50° NO
Mo, 15.07. 23:30 4 1 11 70° O
Mo, 15.07. 23:00 7 2 11 80° O
Mo, 15.07. 22:30 7 2 11 60° NO
Ortszeit Untergrenze Bedeckung Gattung
total tief tief mittel hoch
Mo, 15.07. 20:00 7500 m 7/8 0/8 - - -
Mo, 15.07. 14:00 - 0/8 0/8 - - -
Mo, 15.07. 8:00 - 0/8 0/8 - - -
Mo, 15.07. 2:00 5400 m 8/8 8/8 - - -
So, 14.07. 20:00 3300 m 6/8 6/8 - - -
So, 14.07. 14:00 1800 m 7/8 7/8 - - -
So, 14.07. 8:00 1800 m 3/8 2/8 - - -
So, 14.07. 2:00 7200 m 2/8 0/8 - - -
Ortszeit Bedeckungsgrad in Achtel und Wolkenuntergrenze
Di, 16.07. 1:10 8
Di, 16.07. 1:00 8(8700m)
Di, 16.07. 0:50 8(8700m)
Di, 16.07. 0:40 8
Di, 16.07. 0:30 8(9000m)
Di, 16.07. 0:20 8(9000m)
Di, 16.07. 0:00 3(9000m) 8(9000m)
Mo, 15.07. 23:30 7(10500m)
Mo, 15.07. 23:00 7(10500m)
Mo, 15.07. 22:30 2(10500m)
Ortszeit Luftdruck NN (hPa) Tendenz (hPa in 3 Std.)
Mo, 15.07. 20:00 1011 - 1,1
Mo, 15.07. 14:00 1013 - 0,6
Mo, 15.07. 8:00 1014 + 0,2
Mo, 15.07. 2:00 1014 0,0
So, 14.07. 20:00 1013 + 0,1
So, 14.07. 14:00 1014 - 0,4
So, 14.07. 8:00 1014 + 0,5
So, 14.07. 2:00 1014 + 0,4
Ortszeit Luftdruck NN (hPa) Tendenz (hPa in 3 Std.)
Di, 16.07. 1:10 1010 keine Meldung
Di, 16.07. 1:00 1010 - 1,0
Di, 16.07. 0:50 1010 keine Meldung
Di, 16.07. 0:40 1010 keine Meldung
Di, 16.07. 0:30 1011 - 0,6
Di, 16.07. 0:20 1011 keine Meldung
Di, 16.07. 0:00 1011 - 0,2
Mo, 15.07. 23:30 1011 0,0
Mo, 15.07. 23:00 1011 - 0,1
Mo, 15.07. 22:30 1011 - 0,7
Ortszeit Schneehöhe (cm)
Mo, 15.07. 20:00 0
Mo, 15.07. 14:00 0
Mo, 15.07. 8:00 0
Mo, 15.07. 2:00 0
So, 14.07. 20:00 0
So, 14.07. 14:00 0
So, 14.07. 8:00 0
So, 14.07. 2:00 0
Ortszeit Schneehöhe (cm)
Di, 16.07. 1:10 -
Di, 16.07. 1:00 0
Di, 16.07. 0:50 0
Di, 16.07. 0:40 -
Di, 16.07. 0:30 0
Di, 16.07. 0:20 0
Di, 16.07. 0:00 0
Mo, 15.07. 23:30 0
Mo, 15.07. 23:00 0
Mo, 15.07. 22:30 0
Link zu dieser Seite / Seite empfehlen

Das Wetter in ...